sensor_id;sensor_type;location;lat;lon;timestamp;temperature;humidity
12700;DHT22;6414;49.570;6.060;2023-12-07T00:00:16;2.90;99.90
12700;DHT22;6414;49.570;6.060;2023-12-07T00:03:02;3.00;99.90
12700;DHT22;6414;49.570;6.060;2023-12-07T00:05:48;3.00;99.90
12700;DHT22;6414;49.570;6.060;2023-12-07T00:08:34;3.00;99.90
12700;DHT22;6414;49.570;6.060;2023-12-07T00:11:21;3.00;99.90
12700;DHT22;6414;49.570;6.060;2023-12-07T00:14:06;2.90;99.90
12700;DHT22;6414;49.570;6.060;2023-12-07T00:16:52;2.90;99.90
12700;DHT22;6414;49.570;6.060;2023-12-07T00:19:38;2.90;99.90
12700;DHT22;6414;49.570;6.060;2023-12-07T00:22:23;2.90;99.90
12700;DHT22;6414;49.570;6.060;2023-12-07T00:25:10;2.90;99.90
12700;DHT22;6414;49.570;6.060;2023-12-07T00:27:56;2.90;99.90
12700;DHT22;6414;49.570;6.060;2023-12-07T00:30:41;2.70;99.90
12700;DHT22;6414;49.570;6.060;2023-12-07T00:33:27;2.80;99.90
12700;DHT22;6414;49.570;6.060;2023-12-07T00:36:13;2.90;99.90
12700;DHT22;6414;49.570;6.060;2023-12-07T00:38:59;2.90;99.90
12700;DHT22;6414;49.570;6.060;2023-12-07T00:41:45;3.00;99.90
12700;DHT22;6414;49.570;6.060;2023-12-07T00:44:31;3.00;99.90
12700;DHT22;6414;49.570;6.060;2023-12-07T00:47:17;3.00;99.90
12700;DHT22;6414;49.570;6.060;2023-12-07T00:50:02;3.00;99.90
12700;DHT22;6414;49.570;6.060;2023-12-07T00:52:48;2.80;99.90
12700;DHT22;6414;49.570;6.060;2023-12-07T00:55:34;2.80;99.90
12700;DHT22;6414;49.570;6.060;2023-12-07T00:58:19;2.80;99.90
12700;DHT22;6414;49.570;6.060;2023-12-07T01:01:05;2.80;99.90
12700;DHT22;6414;49.570;6.060;2023-12-07T01:03:51;2.80;99.90
12700;DHT22;6414;49.570;6.060;2023-12-07T01:06:37;2.80;99.90
12700;DHT22;6414;49.570;6.060;2023-12-07T01:09:23;2.80;99.90
12700;DHT22;6414;49.570;6.060;2023-12-07T01:12:08;2.70;99.90
12700;DHT22;6414;49.570;6.060;2023-12-07T01:14:54;2.80;99.90
12700;DHT22;6414;49.570;6.060;2023-12-07T01:17:40;2.80;99.90
12700;DHT22;6414;49.570;6.060;2023-12-07T01:20:25;2.70;99.90
12700;DHT22;6414;49.570;6.060;2023-12-07T01:23:11;2.70;99.90
12700;DHT22;6414;49.570;6.060;2023-12-07T01:25:57;2.70;99.90
12700;DHT22;6414;49.570;6.060;2023-12-07T01:28:42;2.60;99.90
12700;DHT22;6414;49.570;6.060;2023-12-07T01:31:28;2.60;99.90
12700;DHT22;6414;49.570;6.060;2023-12-07T01:34:14;2.50;99.90
12700;DHT22;6414;49.570;6.060;2023-12-07T01:36:59;2.40;99.90
12700;DHT22;6414;49.570;6.060;2023-12-07T01:39:45;2.20;99.90
12700;DHT22;6414;49.570;6.060;2023-12-07T01:42:31;2.40;99.90
12700;DHT22;6414;49.570;6.060;2023-12-07T01:45:17;2.50;99.90
12700;DHT22;6414;49.570;6.060;2023-12-07T01:48:03;2.50;99.90
12700;DHT22;6414;49.570;6.060;2023-12-07T01:50:49;2.50;99.90
12700;DHT22;6414;49.570;6.060;2023-12-07T01:53:35;2.40;99.90
12700;DHT22;6414;49.570;6.060;2023-12-07T01:56:20;2.40;99.90
12700;DHT22;6414;49.570;6.060;2023-12-07T01:59:06;2.40;99.90
12700;DHT22;6414;49.570;6.060;2023-12-07T02:01:52;2.50;99.90
12700;DHT22;6414;49.570;6.060;2023-12-07T02:04:38;2.30;99.90
12700;DHT22;6414;49.570;6.060;2023-12-07T02:07:24;2.30;99.90
12700;DHT22;6414;49.570;6.060;2023-12-07T02:10:10;2.10;99.90
12700;DHT22;6414;49.570;6.060;2023-12-07T02:12:56;2.20;99.90
12700;DHT22;6414;49.570;6.060;2023-12-07T02:15:41;2.10;99.90
12700;DHT22;6414;49.570;6.060;2023-12-07T02:18:38;2.10;99.90
12700;DHT22;6414;49.570;6.060;2023-12-07T02:22:05;2.00;99.90
12700;DHT22;6414;49.570;6.060;2023-12-07T02:24:21;2.10;99.90
12700;DHT22;6414;49.570;6.060;2023-12-07T02:27:07;2.00;99.90
12700;DHT22;6414;49.570;6.060;2023-12-07T02:29:53;2.00;99.90
12700;DHT22;6414;49.570;6.060;2023-12-07T02:32:40;1.90;99.90
12700;DHT22;6414;49.570;6.060;2023-12-07T02:35:25;2.10;99.90
12700;DHT22;6414;49.570;6.060;2023-12-07T02:38:10;2.10;99.90
12700;DHT22;6414;49.570;6.060;2023-12-07T02:40:56;2.00;99.90
12700;DHT22;6414;49.570;6.060;2023-12-07T02:43:42;1.90;99.90
12700;DHT22;6414;49.570;6.060;2023-12-07T02:46:28;1.90;99.90
12700;DHT22;6414;49.570;6.060;2023-12-07T02:49:14;1.90;99.90
12700;DHT22;6414;49.570;6.060;2023-12-07T02:51:59;2.00;99.90
12700;DHT22;6414;49.570;6.060;2023-12-07T02:54:45;2.00;99.90
12700;DHT22;6414;49.570;6.060;2023-12-07T02:57:31;1.90;99.90
12700;DHT22;6414;49.570;6.060;2023-12-07T03:00:17;1.90;99.90
12700;DHT22;6414;49.570;6.060;2023-12-07T03:03:02;2.00;99.90
12700;DHT22;6414;49.570;6.060;2023-12-07T03:05:48;1.90;99.90
12700;DHT22;6414;49.570;6.060;2023-12-07T03:08:34;1.90;99.90
12700;DHT22;6414;49.570;6.060;2023-12-07T03:11:19;1.90;99.90
12700;DHT22;6414;49.570;6.060;2023-12-07T03:14:05;1.80;99.90
12700;DHT22;6414;49.570;6.060;2023-12-07T03:16:51;1.70;99.90
12700;DHT22;6414;49.570;6.060;2023-12-07T03:19:40;1.70;99.90
12700;DHT22;6414;49.570;6.060;2023-12-07T03:22:25;1.60;99.90
12700;DHT22;6414;49.570;6.060;2023-12-07T03:25:11;1.70;99.90
12700;DHT22;6414;49.570;6.060;2023-12-07T03:27:57;1.70;99.90
12700;DHT22;6414;49.570;6.060;2023-12-07T03:30:43;1.70;99.90
12700;DHT22;6414;49.570;6.060;2023-12-07T03:33:29;1.70;99.90
12700;DHT22;6414;49.570;6.060;2023-12-07T03:36:15;1.70;99.90
12700;DHT22;6414;49.570;6.060;2023-12-07T03:39:00;1.70;99.90
12700;DHT22;6414;49.570;6.060;2023-12-07T03:41:46;1.60;99.90
12700;DHT22;6414;49.570;6.060;2023-12-07T03:44:32;1.60;99.90
12700;DHT22;6414;49.570;6.060;2023-12-07T03:47:18;1.60;99.90
12700;DHT22;6414;49.570;6.060;2023-12-07T03:50:04;1.50;99.90
12700;DHT22;6414;49.570;6.060;2023-12-07T03:52:49;1.40;99.90
12700;DHT22;6414;49.570;6.060;2023-12-07T03:55:35;1.40;99.90
12700;DHT22;6414;49.570;6.060;2023-12-07T03:58:21;1.50;99.90
12700;DHT22;6414;49.570;6.060;2023-12-07T04:01:07;1.40;99.90
12700;DHT22;6414;49.570;6.060;2023-12-07T04:03:53;1.50;99.90
12700;DHT22;6414;49.570;6.060;2023-12-07T04:06:38;1.40;99.90
12700;DHT22;6414;49.570;6.060;2023-12-07T04:09:24;1.50;99.90
12700;DHT22;6414;49.570;6.060;2023-12-07T04:12:10;1.50;99.90
12700;DHT22;6414;49.570;6.060;2023-12-07T04:14:56;1.40;99.90
12700;DHT22;6414;49.570;6.060;2023-12-07T04:17:41;1.30;99.90
12700;DHT22;6414;49.570;6.060;2023-12-07T04:20:28;1.40;99.90
12700;DHT22;6414;49.570;6.060;2023-12-07T04:23:13;1.40;99.90
12700;DHT22;6414;49.570;6.060;2023-12-07T04:25:59;1.40;99.90
12700;DHT22;6414;49.570;6.060;2023-12-07T04:28:44;1.40;99.90
12700;DHT22;6414;49.570;6.060;2023-12-07T04:31:30;1.40;99.90
12700;DHT22;6414;49.570;6.060;2023-12-07T04:34:16;1.30;99.90
12700;DHT22;6414;49.570;6.060;2023-12-07T04:37:02;1.30;99.90
12700;DHT22;6414;49.570;6.060;2023-12-07T04:39:48;1.40;99.90
12700;DHT22;6414;49.570;6.060;2023-12-07T04:42:34;1.40;99.90
12700;DHT22;6414;49.570;6.060;2023-12-07T04:45:20;1.40;99.90
12700;DHT22;6414;49.570;6.060;2023-12-07T04:48:06;1.40;99.90
12700;DHT22;6414;49.570;6.060;2023-12-07T04:50:52;1.40;99.90
12700;DHT22;6414;49.570;6.060;2023-12-07T04:53:38;1.40;99.90
12700;DHT22;6414;49.570;6.060;2023-12-07T04:56:24;1.50;99.90
12700;DHT22;6414;49.570;6.060;2023-12-07T04:59:10;1.50;99.90
12700;DHT22;6414;49.570;6.060;2023-12-07T05:01:56;1.40;99.90
12700;DHT22;6414;49.570;6.060;2023-12-07T05:04:43;1.40;99.90
12700;DHT22;6414;49.570;6.060;2023-12-07T05:07:29;1.40;99.90
12700;DHT22;6414;49.570;6.060;2023-12-07T05:10:16;1.30;99.90
12700;DHT22;6414;49.570;6.060;2023-12-07T05:13:02;1.30;99.90
12700;DHT22;6414;49.570;6.060;2023-12-07T05:15:48;1.30;99.90
12700;DHT22;6414;49.570;6.060;2023-12-07T05:18:34;1.20;99.90
12700;DHT22;6414;49.570;6.060;2023-12-07T05:21:20;1.20;99.90
12700;DHT22;6414;49.570;6.060;2023-12-07T05:24:06;1.20;99.90
12700;DHT22;6414;49.570;6.060;2023-12-07T05:26:52;1.20;99.90
12700;DHT22;6414;49.570;6.060;2023-12-07T05:29:38;1.30;99.90
12700;DHT22;6414;49.570;6.060;2023-12-07T05:32:24;1.40;99.90
12700;DHT22;6414;49.570;6.060;2023-12-07T05:35:10;1.40;99.90
12700;DHT22;6414;49.570;6.060;2023-12-07T05:37:56;1.50;99.90
12700;DHT22;6414;49.570;6.060;2023-12-07T05:40:42;1.50;99.90
12700;DHT22;6414;49.570;6.060;2023-12-07T05:43:28;1.50;99.90
12700;DHT22;6414;49.570;6.060;2023-12-07T05:46:14;1.50;99.90
12700;DHT22;6414;49.570;6.060;2023-12-07T05:49:00;1.50;99.90
12700;DHT22;6414;49.570;6.060;2023-12-07T05:51:47;1.30;99.90
12700;DHT22;6414;49.570;6.060;2023-12-07T05:54:33;1.30;99.90
12700;DHT22;6414;49.570;6.060;2023-12-07T05:57:19;1.20;99.90
12700;DHT22;6414;49.570;6.060;2023-12-07T06:00:05;1.10;99.90
12700;DHT22;6414;49.570;6.060;2023-12-07T06:02:51;1.10;99.90
12700;DHT22;6414;49.570;6.060;2023-12-07T06:05:37;1.10;99.90
12700;DHT22;6414;49.570;6.060;2023-12-07T06:08:23;1.10;99.90
12700;DHT22;6414;49.570;6.060;2023-12-07T06:11:09;1.20;99.90
12700;DHT22;6414;49.570;6.060;2023-12-07T06:13:55;1.10;99.90
12700;DHT22;6414;49.570;6.060;2023-12-07T06:16:41;1.10;99.90
12700;DHT22;6414;49.570;6.060;2023-12-07T06:19:27;1.10;99.90
12700;DHT22;6414;49.570;6.060;2023-12-07T06:22:13;1.20;99.90
12700;DHT22;6414;49.570;6.060;2023-12-07T06:24:59;1.20;99.90
12700;DHT22;6414;49.570;6.060;2023-12-07T06:27:45;1.10;99.90
12700;DHT22;6414;49.570;6.060;2023-12-07T06:30:31;1.10;99.90
12700;DHT22;6414;49.570;6.060;2023-12-07T06:33:17;1.10;99.90
12700;DHT22;6414;49.570;6.060;2023-12-07T06:36:03;1.10;99.90
12700;DHT22;6414;49.570;6.060;2023-12-07T06:38:49;1.10;99.90
12700;DHT22;6414;49.570;6.060;2023-12-07T06:41:36;1.00;99.90
12700;DHT22;6414;49.570;6.060;2023-12-07T06:44:22;0.90;99.90
12700;DHT22;6414;49.570;6.060;2023-12-07T06:47:08;0.90;99.90
12700;DHT22;6414;49.570;6.060;2023-12-07T06:49:54;0.90;99.90
12700;DHT22;6414;49.570;6.060;2023-12-07T06:52:41;0.80;99.90
12700;DHT22;6414;49.570;6.060;2023-12-07T06:55:27;0.80;99.90
12700;DHT22;6414;49.570;6.060;2023-12-07T06:58:12;0.80;99.90
12700;DHT22;6414;49.570;6.060;2023-12-07T07:00:58;0.90;99.90
12700;DHT22;6414;49.570;6.060;2023-12-07T07:03:45;0.90;99.90
12700;DHT22;6414;49.570;6.060;2023-12-07T07:06:30;0.90;99.90
12700;DHT22;6414;49.570;6.060;2023-12-07T07:09:17;1.00;99.90
12700;DHT22;6414;49.570;6.060;2023-12-07T07:12:03;1.00;99.90
12700;DHT22;6414;49.570;6.060;2023-12-07T07:14:49;0.90;99.90
12700;DHT22;6414;49.570;6.060;2023-12-07T07:17:36;0.80;99.90
12700;DHT22;6414;49.570;6.060;2023-12-07T07:20:22;0.80;99.90
12700;DHT22;6414;49.570;6.060;2023-12-07T07:23:07;0.70;99.90
12700;DHT22;6414;49.570;6.060;2023-12-07T07:25:54;0.70;99.90
12700;DHT22;6414;49.570;6.060;2023-12-07T07:28:40;0.60;99.90
12700;DHT22;6414;49.570;6.060;2023-12-07T07:31:26;0.50;99.90
12700;DHT22;6414;49.570;6.060;2023-12-07T07:34:12;0.50;99.90
12700;DHT22;6414;49.570;6.060;2023-12-07T07:36:58;0.50;99.90
12700;DHT22;6414;49.570;6.060;2023-12-07T07:39:44;0.40;99.90
12700;DHT22;6414;49.570;6.060;2023-12-07T07:42:31;0.40;99.90
12700;DHT22;6414;49.570;6.060;2023-12-07T07:45:18;0.50;99.90
12700;DHT22;6414;49.570;6.060;2023-12-07T07:48:04;0.50;99.90
12700;DHT22;6414;49.570;6.060;2023-12-07T07:50:50;0.30;99.90
12700;DHT22;6414;49.570;6.060;2023-12-07T07:53:36;0.30;99.90
12700;DHT22;6414;49.570;6.060;2023-12-07T07:56:23;0.20;99.90
12700;DHT22;6414;49.570;6.060;2023-12-07T07:59:09;0.20;99.90
12700;DHT22;6414;49.570;6.060;2023-12-07T08:01:56;0.30;99.90
12700;DHT22;6414;49.570;6.060;2023-12-07T08:04:42;0.20;99.90
12700;DHT22;6414;49.570;6.060;2023-12-07T08:07:28;0.30;99.90
12700;DHT22;6414;49.570;6.060;2023-12-07T08:10:14;0.30;99.90
12700;DHT22;6414;49.570;6.060;2023-12-07T08:13:01;0.40;99.90
12700;DHT22;6414;49.570;6.060;2023-12-07T08:15:47;0.40;99.90
12700;DHT22;6414;49.570;6.060;2023-12-07T08:18:32;0.40;99.90
12700;DHT22;6414;49.570;6.060;2023-12-07T08:21:22;0.40;99.90
12700;DHT22;6414;49.570;6.060;2023-12-07T08:24:07;0.40;99.90
12700;DHT22;6414;49.570;6.060;2023-12-07T08:26:54;0.20;99.90
12700;DHT22;6414;49.570;6.060;2023-12-07T08:29:40;0.10;99.90
12700;DHT22;6414;49.570;6.060;2023-12-07T08:32:27;0.10;99.90
12700;DHT22;6414;49.570;6.060;2023-12-07T08:35:12;0.00;99.90
12700;DHT22;6414;49.570;6.060;2023-12-07T08:38:01;-0.10;99.90
12700;DHT22;6414;49.570;6.060;2023-12-07T08:40:47;-0.10;99.90
12700;DHT22;6414;49.570;6.060;2023-12-07T08:43:33;0.00;99.90
12700;DHT22;6414;49.570;6.060;2023-12-07T08:46:19;0.10;99.90
12700;DHT22;6414;49.570;6.060;2023-12-07T08:49:05;0.20;99.90
12700;DHT22;6414;49.570;6.060;2023-12-07T08:51:52;0.00;99.90
12700;DHT22;6414;49.570;6.060;2023-12-07T08:54:38;-0.10;99.90
12700;DHT22;6414;49.570;6.060;2023-12-07T08:57:24;0.00;99.90
12700;DHT22;6414;49.570;6.060;2023-12-07T09:00:11;-0.30;99.90
12700;DHT22;6414;49.570;6.060;2023-12-07T09:02:57;-0.30;99.90
12700;DHT22;6414;49.570;6.060;2023-12-07T09:05:43;-0.30;99.90
12700;DHT22;6414;49.570;6.060;2023-12-07T09:08:29;-0.30;99.90
12700;DHT22;6414;49.570;6.060;2023-12-07T09:11:15;-0.30;99.90
12700;DHT22;6414;49.570;6.060;2023-12-07T09:14:01;-0.20;99.90
12700;DHT22;6414;49.570;6.060;2023-12-07T09:16:47;-0.10;99.90
12700;DHT22;6414;49.570;6.060;2023-12-07T09:19:33;-0.10;99.90
12700;DHT22;6414;49.570;6.060;2023-12-07T09:22:19;-0.20;99.90
12700;DHT22;6414;49.570;6.060;2023-12-07T09:25:05;-0.10;99.90
12700;DHT22;6414;49.570;6.060;2023-12-07T09:27:51;-0.40;99.90
12700;DHT22;6414;49.570;6.060;2023-12-07T09:30:37;-0.40;99.90
12700;DHT22;6414;49.570;6.060;2023-12-07T09:33:23;-0.50;99.90
12700;DHT22;6414;49.570;6.060;2023-12-07T09:36:09;-0.50;99.90
12700;DHT22;6414;49.570;6.060;2023-12-07T09:38:55;-0.50;99.90
12700;DHT22;6414;49.570;6.060;2023-12-07T09:41:41;-0.50;99.90
12700;DHT22;6414;49.570;6.060;2023-12-07T09:44:27;-0.50;99.90
12700;DHT22;6414;49.570;6.060;2023-12-07T09:47:13;-0.50;99.90
12700;DHT22;6414;49.570;6.060;2023-12-07T09:49:59;-0.50;99.90
12700;DHT22;6414;49.570;6.060;2023-12-07T09:52:47;-0.40;99.90
12700;DHT22;6414;49.570;6.060;2023-12-07T09:55:31;-0.30;99.90
12700;DHT22;6414;49.570;6.060;2023-12-07T09:58:16;-0.20;99.90
12700;DHT22;6414;49.570;6.060;2023-12-07T10:01:02;-0.10;99.90
12700;DHT22;6414;49.570;6.060;2023-12-07T10:03:48;-0.10;99.90
12700;DHT22;6414;49.570;6.060;2023-12-07T10:06:43;-0.10;99.90
12700;DHT22;6414;49.570;6.060;2023-12-07T10:09:38;-0.10;99.90
12700;DHT22;6414;49.570;6.060;2023-12-07T10:12:24;0.00;99.90
12700;DHT22;6414;49.570;6.060;2023-12-07T10:15:16;0.00;99.90
12700;DHT22;6414;49.570;6.060;2023-12-07T10:18:02;0.00;99.90
12700;DHT22;6414;49.570;6.060;2023-12-07T10:20:48;0.10;99.90
12700;DHT22;6414;49.570;6.060;2023-12-07T10:23:35;0.30;99.90
12700;DHT22;6414;49.570;6.060;2023-12-07T10:26:21;0.30;99.90
12700;DHT22;6414;49.570;6.060;2023-12-07T10:29:07;0.30;99.90
12700;DHT22;6414;49.570;6.060;2023-12-07T10:31:59;0.40;99.90
12700;DHT22;6414;49.570;6.060;2023-12-07T10:34:39;0.50;99.90
12700;DHT22;6414;49.570;6.060;2023-12-07T10:37:25;0.70;99.90
12700;DHT22;6414;49.570;6.060;2023-12-07T10:40:11;0.70;99.90
12700;DHT22;6414;49.570;6.060;2023-12-07T10:42:58;0.80;99.90
12700;DHT22;6414;49.570;6.060;2023-12-07T10:45:44;0.80;99.90
12700;DHT22;6414;49.570;6.060;2023-12-07T10:48:30;0.70;99.90
12700;DHT22;6414;49.570;6.060;2023-12-07T10:52:03;0.60;99.90
12700;DHT22;6414;49.570;6.060;2023-12-07T10:54:03;0.70;99.90
12700;DHT22;6414;49.570;6.060;2023-12-07T10:56:49;0.70;99.90
12700;DHT22;6414;49.570;6.060;2023-12-07T10:59:38;0.70;99.90
12700;DHT22;6414;49.570;6.060;2023-12-07T11:02:24;0.70;99.90
12700;DHT22;6414;49.570;6.060;2023-12-07T11:05:09;0.90;99.90
12700;DHT22;6414;49.570;6.060;2023-12-07T11:08:00;1.00;99.90
12700;DHT22;6414;49.570;6.060;2023-12-07T11:13:45;1.30;99.90
12700;DHT22;6414;49.570;6.060;2023-12-07T11:16:30;1.20;99.90
12700;DHT22;6414;49.570;6.060;2023-12-07T11:22:18;1.10;99.90
12700;DHT22;6414;49.570;6.060;2023-12-07T11:25:04;1.10;99.90
12700;DHT22;6414;49.570;6.060;2023-12-07T11:27:59;1.10;99.90
12700;DHT22;6414;49.570;6.060;2023-12-07T11:30:37;1.20;99.90
12700;DHT22;6414;49.570;6.060;2023-12-07T11:33:23;1.30;99.90
12700;DHT22;6414;49.570;6.060;2023-12-07T11:36:10;1.40;99.90
12700;DHT22;6414;49.570;6.060;2023-12-07T11:41:49;1.40;99.90
12700;DHT22;6414;49.570;6.060;2023-12-07T11:44:34;1.40;99.90
12700;DHT22;6414;49.570;6.060;2023-12-07T11:47:20;1.50;99.90
12700;DHT22;6414;49.570;6.060;2023-12-07T11:50:06;1.60;99.90
12700;DHT22;6414;49.570;6.060;2023-12-07T11:52:52;1.50;99.90
12700;DHT22;6414;49.570;6.060;2023-12-07T11:55:39;1.60;99.90
12700;DHT22;6414;49.570;6.060;2023-12-07T11:58:29;1.60;99.90
12700;DHT22;6414;49.570;6.060;2023-12-07T12:01:14;1.50;99.90
12700;DHT22;6414;49.570;6.060;2023-12-07T12:04:00;1.50;99.90
12700;DHT22;6414;49.570;6.060;2023-12-07T12:06:45;1.50;99.90
12700;DHT22;6414;49.570;6.060;2023-12-07T12:09:31;1.40;99.90
12700;DHT22;6414;49.570;6.060;2023-12-07T12:12:17;1.40;99.90
12700;DHT22;6414;49.570;6.060;2023-12-07T12:15:02;1.40;99.90
12700;DHT22;6414;49.570;6.060;2023-12-07T12:17:48;1.50;99.90
12700;DHT22;6414;49.570;6.060;2023-12-07T12:20:35;1.50;99.90
12700;DHT22;6414;49.570;6.060;2023-12-07T12:23:20;1.50;99.90
12700;DHT22;6414;49.570;6.060;2023-12-07T12:26:06;1.40;99.90
12700;DHT22;6414;49.570;6.060;2023-12-07T12:28:52;1.50;99.90
12700;DHT22;6414;49.570;6.060;2023-12-07T12:31:39;1.40;99.90
12700;DHT22;6414;49.570;6.060;2023-12-07T12:34:24;1.40;99.90
12700;DHT22;6414;49.570;6.060;2023-12-07T12:37:10;1.40;99.90
12700;DHT22;6414;49.570;6.060;2023-12-07T12:39:56;1.40;99.90
12700;DHT22;6414;49.570;6.060;2023-12-07T12:42:49;1.40;99.90
12700;DHT22;6414;49.570;6.060;2023-12-07T12:45:31;1.40;99.90
12700;DHT22;6414;49.570;6.060;2023-12-07T12:48:17;1.40;99.90
12700;DHT22;6414;49.570;6.060;2023-12-07T12:51:10;1.50;99.90
12700;DHT22;6414;49.570;6.060;2023-12-07T12:53:54;1.50;99.90
12700;DHT22;6414;49.570;6.060;2023-12-07T12:56:40;1.60;99.90
12700;DHT22;6414;49.570;6.060;2023-12-07T12:59:25;1.50;99.90
12700;DHT22;6414;49.570;6.060;2023-12-07T13:02:11;1.50;99.90
12700;DHT22;6414;49.570;6.060;2023-12-07T13:04:57;1.50;99.90
12700;DHT22;6414;49.570;6.060;2023-12-07T13:07:46;1.70;99.90
12700;DHT22;6414;49.570;6.060;2023-12-07T13:10:33;1.60;99.90
12700;DHT22;6414;49.570;6.060;2023-12-07T13:13:18;1.60;99.90
12700;DHT22;6414;49.570;6.060;2023-12-07T13:16:04;1.60;99.90
12700;DHT22;6414;49.570;6.060;2023-12-07T13:18:49;1.60;99.90
12700;DHT22;6414;49.570;6.060;2023-12-07T13:21:35;1.60;99.90
12700;DHT22;6414;49.570;6.060;2023-12-07T13:24:21;1.60;99.90
12700;DHT22;6414;49.570;6.060;2023-12-07T13:27:07;1.60;99.90
12700;DHT22;6414;49.570;6.060;2023-12-07T13:29:53;1.60;99.90
12700;DHT22;6414;49.570;6.060;2023-12-07T13:32:38;1.60;99.90
12700;DHT22;6414;49.570;6.060;2023-12-07T13:35:24;1.60;99.90
12700;DHT22;6414;49.570;6.060;2023-12-07T13:38:10;1.70;99.90
12700;DHT22;6414;49.570;6.060;2023-12-07T13:40:56;1.70;99.90
12700;DHT22;6414;49.570;6.060;2023-12-07T13:43:41;1.80;99.90
12700;DHT22;6414;49.570;6.060;2023-12-07T13:46:27;1.70;99.90
12700;DHT22;6414;49.570;6.060;2023-12-07T13:49:13;1.70;99.90
12700;DHT22;6414;49.570;6.060;2023-12-07T13:51:58;1.80;99.90
12700;DHT22;6414;49.570;6.060;2023-12-07T13:54:44;1.70;99.90
12700;DHT22;6414;49.570;6.060;2023-12-07T13:57:30;1.80;99.90
12700;DHT22;6414;49.570;6.060;2023-12-07T14:00:16;1.80;99.90
12700;DHT22;6414;49.570;6.060;2023-12-07T14:03:02;1.80;99.90
12700;DHT22;6414;49.570;6.060;2023-12-07T14:05:48;1.70;99.90
12700;DHT22;6414;49.570;6.060;2023-12-07T14:08:34;1.70;99.90
12700;DHT22;6414;49.570;6.060;2023-12-07T14:11:20;1.70;99.90
12700;DHT22;6414;49.570;6.060;2023-12-07T14:14:06;1.80;99.90
12700;DHT22;6414;49.570;6.060;2023-12-07T14:16:52;1.80;99.90
12700;DHT22;6414;49.570;6.060;2023-12-07T14:19:38;1.80;99.90
12700;DHT22;6414;49.570;6.060;2023-12-07T14:22:24;1.80;99.90
12700;DHT22;6414;49.570;6.060;2023-12-07T14:25:11;1.80;99.90
12700;DHT22;6414;49.570;6.060;2023-12-07T14:27:57;1.70;99.90
12700;DHT22;6414;49.570;6.060;2023-12-07T14:30:43;1.70;99.90
12700;DHT22;6414;49.570;6.060;2023-12-07T14:33:29;1.70;99.90
12700;DHT22;6414;49.570;6.060;2023-12-07T14:36:15;1.80;99.90
12700;DHT22;6414;49.570;6.060;2023-12-07T14:39:01;1.80;99.90
12700;DHT22;6414;49.570;6.060;2023-12-07T14:41:49;1.70;99.90
12700;DHT22;6414;49.570;6.060;2023-12-07T14:44:34;1.70;99.90
12700;DHT22;6414;49.570;6.060;2023-12-07T14:47:21;1.70;99.90
12700;DHT22;6414;49.570;6.060;2023-12-07T14:50:07;1.70;99.90
12700;DHT22;6414;49.570;6.060;2023-12-07T14:52:53;1.70;99.90
12700;DHT22;6414;49.570;6.060;2023-12-07T14:55:40;1.70;99.90
12700;DHT22;6414;49.570;6.060;2023-12-07T14:58:26;1.70;99.90
12700;DHT22;6414;49.570;6.060;2023-12-07T15:01:12;1.70;99.90
12700;DHT22;6414;49.570;6.060;2023-12-07T15:03:59;1.70;99.90
12700;DHT22;6414;49.570;6.060;2023-12-07T15:06:45;1.60;99.90
12700;DHT22;6414;49.570;6.060;2023-12-07T15:09:31;1.60;99.90
12700;DHT22;6414;49.570;6.060;2023-12-07T15:12:17;1.60;99.90
12700;DHT22;6414;49.570;6.060;2023-12-07T15:15:03;1.60;99.90
12700;DHT22;6414;49.570;6.060;2023-12-07T15:17:49;1.60;99.90
12700;DHT22;6414;49.570;6.060;2023-12-07T15:20:35;1.60;99.90
12700;DHT22;6414;49.570;6.060;2023-12-07T15:23:21;1.60;99.90
12700;DHT22;6414;49.570;6.060;2023-12-07T15:26:07;1.60;99.90
12700;DHT22;6414;49.570;6.060;2023-12-07T15:28:55;1.60;99.90
12700;DHT22;6414;49.570;6.060;2023-12-07T15:31:41;1.60;99.90
12700;DHT22;6414;49.570;6.060;2023-12-07T15:34:27;1.60;99.90
12700;DHT22;6414;49.570;6.060;2023-12-07T15:37:13;1.60;99.90
12700;DHT22;6414;49.570;6.060;2023-12-07T15:40:01;1.60;99.90
12700;DHT22;6414;49.570;6.060;2023-12-07T15:42:47;1.60;99.90
12700;DHT22;6414;49.570;6.060;2023-12-07T15:45:32;1.60;99.90
12700;DHT22;6414;49.570;6.060;2023-12-07T15:48:18;1.60;99.90
12700;DHT22;6414;49.570;6.060;2023-12-07T15:51:04;1.60;99.90
12700;DHT22;6414;49.570;6.060;2023-12-07T15:53:50;1.60;99.90
12700;DHT22;6414;49.570;6.060;2023-12-07T15:56:40;1.60;99.90
12700;DHT22;6414;49.570;6.060;2023-12-07T15:59:25;1.60;99.90
12700;DHT22;6414;49.570;6.060;2023-12-07T16:02:11;1.60;99.90
12700;DHT22;6414;49.570;6.060;2023-12-07T16:04:56;1.60;99.90
12700;DHT22;6414;49.570;6.060;2023-12-07T16:07:42;1.60;99.90
12700;DHT22;6414;49.570;6.060;2023-12-07T16:10:28;1.60;99.90
12700;DHT22;6414;49.570;6.060;2023-12-07T16:13:14;1.50;99.90
12700;DHT22;6414;49.570;6.060;2023-12-07T16:16:00;1.50;99.90
12700;DHT22;6414;49.570;6.060;2023-12-07T16:18:46;1.50;99.90
12700;DHT22;6414;49.570;6.060;2023-12-07T16:21:32;1.40;99.90
12700;DHT22;6414;49.570;6.060;2023-12-07T16:24:18;1.40;99.90
12700;DHT22;6414;49.570;6.060;2023-12-07T16:27:03;1.40;99.90
12700;DHT22;6414;49.570;6.060;2023-12-07T16:29:49;1.40;99.90
12700;DHT22;6414;49.570;6.060;2023-12-07T16:32:35;1.40;99.90
12700;DHT22;6414;49.570;6.060;2023-12-07T16:35:22;1.50;99.90
12700;DHT22;6414;49.570;6.060;2023-12-07T16:38:08;1.50;99.90
12700;DHT22;6414;49.570;6.060;2023-12-07T16:40:54;1.40;99.90
12700;DHT22;6414;49.570;6.060;2023-12-07T16:43:41;1.40;99.90
12700;DHT22;6414;49.570;6.060;2023-12-07T16:46:26;1.40;99.90
12700;DHT22;6414;49.570;6.060;2023-12-07T16:49:13;1.40;99.90
12700;DHT22;6414;49.570;6.060;2023-12-07T16:51:58;1.30;99.90
12700;DHT22;6414;49.570;6.060;2023-12-07T16:54:44;1.30;99.90
12700;DHT22;6414;49.570;6.060;2023-12-07T16:57:31;1.30;99.90
12700;DHT22;6414;49.570;6.060;2023-12-07T17:00:16;1.30;99.90
12700;DHT22;6414;49.570;6.060;2023-12-07T17:03:02;1.30;99.90
12700;DHT22;6414;49.570;6.060;2023-12-07T17:05:48;1.30;99.90
12700;DHT22;6414;49.570;6.060;2023-12-07T17:08:34;1.30;99.90
12700;DHT22;6414;49.570;6.060;2023-12-07T17:11:21;1.20;99.90
12700;DHT22;6414;49.570;6.060;2023-12-07T17:14:07;1.20;99.90
12700;DHT22;6414;49.570;6.060;2023-12-07T17:16:53;1.20;99.90
12700;DHT22;6414;49.570;6.060;2023-12-07T17:19:39;1.20;99.90
12700;DHT22;6414;49.570;6.060;2023-12-07T17:22:25;1.30;99.90
12700;DHT22;6414;49.570;6.060;2023-12-07T17:25:11;1.30;99.90
12700;DHT22;6414;49.570;6.060;2023-12-07T17:27:57;1.30;99.90
12700;DHT22;6414;49.570;6.060;2023-12-07T17:30:43;1.40;99.90
12700;DHT22;6414;49.570;6.060;2023-12-07T17:33:30;1.30;99.90
12700;DHT22;6414;49.570;6.060;2023-12-07T17:36:15;1.30;99.90
12700;DHT22;6414;49.570;6.060;2023-12-07T17:39:01;1.20;99.90
12700;DHT22;6414;49.570;6.060;2023-12-07T17:41:47;1.10;99.90
12700;DHT22;6414;49.570;6.060;2023-12-07T17:44:33;1.10;99.90
12700;DHT22;6414;49.570;6.060;2023-12-07T17:47:19;1.10;99.90
12700;DHT22;6414;49.570;6.060;2023-12-07T17:50:05;1.10;99.90
12700;DHT22;6414;49.570;6.060;2023-12-07T17:52:51;1.10;99.90
12700;DHT22;6414;49.570;6.060;2023-12-07T17:55:37;1.10;99.90
12700;DHT22;6414;49.570;6.060;2023-12-07T17:58:23;1.10;99.90
12700;DHT22;6414;49.570;6.060;2023-12-07T18:01:16;1.10;99.90
12700;DHT22;6414;49.570;6.060;2023-12-07T18:03:56;1.20;99.90
12700;DHT22;6414;49.570;6.060;2023-12-07T18:06:42;1.20;99.90
12700;DHT22;6414;49.570;6.060;2023-12-07T18:09:28;1.10;99.90